Time;durP1;ratioP1;P1;durP2;ratioP2;P2;SDS_P1;SDS_P2;PMS_P1;PMS_P2;Temp;Humidity;BMP_temperature;BMP_pressure;BME280_temperature;BME280_humidity;BME280_pressure;Samples;Min_cycle;Max_cycle;Signal;HPM_P1;HPM_P2
2022/06/17 00:00:59;;;;;;;;;24.00;22.25;;;;;-142.59;100.00;56100.38;5074519;28;49839;-67
2022/06/17 00:03:27;;;;;;;;;23.50;23.25;;;;;-142.59;100.00;56100.38;5075025;27;49811;-63
2022/06/17 00:05:55;;;;;;;;;21.25;19.25;;;;;-142.59;100.00;56100.38;5074717;28;50342;-65
2022/06/17 00:08:25;;;;;;;;;26.00;22.25;;;;;-142.59;100.00;56100.38;5074040;28;49740;-64
2022/06/17 00:10:51;;;;;;;;;21.50;21.25;;;;;-142.59;100.00;56100.38;5074705;28;49744;-64
2022/06/17 00:13:19;;;;;;;;;27.00;25.00;;;;;-142.59;100.00;56100.38;5074644;28;49647;-64
2022/06/17 00:15:48;;;;;;;;;23.50;21.50;;;;;-142.59;100.00;56100.38;5074383;28;50560;-64
2022/06/17 00:18:15;;;;;;;;;17.50;17.50;;;;;-142.59;100.00;56100.38;5074575;28;49589;-65
2022/06/17 00:20:42;;;;;;;;;10.25;10.25;;;;;-142.59;100.00;56100.38;5074553;28;50047;-64
2022/06/17 00:23:12;;;;;;;;;17.00;15.00;;;;;-142.59;100.00;56100.38;5074343;28;49977;-68
2022/06/17 00:25:40;;;;;;;;;17.50;16.25;;;;;-142.59;100.00;56100.38;5074147;28;50598;-64
2022/06/17 00:28:19;;;;;;;;;18.00;15.50;;;;;-142.59;100.00;56100.38;5073714;28;49613;-64
2022/06/17 00:30:46;;;;;;;;;14.00;12.75;;;;;-142.59;100.00;56100.38;5074118;28;49807;-65
2022/06/17 00:33:13;;;;;;;;;12.75;12.75;;;;;-142.59;100.00;56100.38;5074161;28;50719;-63
2022/06/17 00:35:42;;;;;;;;;19.25;17.75;;;;;-142.59;100.00;56100.38;5073411;28;50575;-67
2022/06/17 00:38:14;;;;;;;;;16.50;14.75;;;;;-142.59;100.00;56100.38;5073578;27;49592;-65
2022/06/17 00:40:40;;;;;;;;;14.75;14.00;;;;;-142.59;100.00;56100.38;5074175;28;49805;-64
2022/06/17 00:43:15;;;;;;;;;15.00;15.00;;;;;-142.59;100.00;56100.38;5074408;28;49783;-63
2022/06/17 00:45:50;;;;;;;;;15.00;15.00;;;;;-142.59;100.00;56100.38;5074081;28;50638;-63
2022/06/17 00:48:27;;;;;;;;;13.25;13.25;;;;;-142.59;100.00;56100.38;5074110;28;49791;-65
2022/06/17 00:51:08;;;;;;;;;15.50;13.75;;;;;-142.59;100.00;56100.38;5074031;27;49657;-64
2022/06/17 00:53:49;;;;;;;;;17.50;16.50;;;;;-142.59;100.00;56100.38;5073650;28;49546;-64
2022/06/17 00:56:25;;;;;;;;;15.00;13.75;;;;;-142.59;100.00;56100.38;5073660;28;50953;-66
2022/06/17 00:59:09;;;;;;;;;16.50;16.50;;;;;-142.59;100.00;56100.38;5073874;28;49737;-64
2022/06/17 01:02:03;;;;;;;;;21.25;19.25;;;;;-142.59;100.00;56100.38;5073967;27;49743;-66
2022/06/17 01:04:34;;;;;;;;;14.00;14.00;;;;;-142.59;100.00;56100.38;5062278;28;49613;-64
2022/06/17 01:07:03;;;;;;;;;15.75;15.75;;;;;-142.59;100.00;56100.38;5073656;27;49768;-64
2022/06/17 01:12:19;;;;;;;;;15.25;14.50;;;;;-142.59;100.00;56100.38;5073752;28;49694;-63
2022/06/17 01:14:45;;;;;;;;;14.25;13.25;;;;;-142.59;100.00;56100.38;5073842;28;49815;-65
2022/06/17 01:17:13;;;;;;;;;18.00;17.25;;;;;-142.59;100.00;56100.38;5073478;28;49917;-64
2022/06/17 01:19:50;;;;;;;;;16.75;16.50;;;;;-142.59;100.00;56100.38;5072978;28;49707;-64
2022/06/17 01:22:27;;;;;;;;;16.25;15.00;;;;;-142.59;100.00;56100.38;5073639;28;49754;-63
2022/06/17 01:25:26;;;;;;;;;14.25;13.00;;;;;-142.59;100.00;56100.38;5073580;28;49849;-64
2022/06/17 01:28:02;;;;;;;;;16.25;14.50;;;;;-142.59;100.00;56100.38;5073224;28;49768;-64
2022/06/17 01:30:31;;;;;;;;;15.00;15.00;;;;;-142.59;100.00;56100.38;5073461;27;49710;-65
2022/06/17 01:33:00;;;;;;;;;14.25;13.75;;;;;-142.59;100.00;56100.38;5073403;27;49819;-67
2022/06/17 01:35:31;;;;;;;;;14.00;13.00;;;;;-142.59;100.00;56100.38;5073693;27;49758;-68
2022/06/17 01:37:57;;;;;;;;;15.75;15.00;;;;;-142.59;100.00;56100.38;5073041;28;50003;-63
2022/06/17 01:40:27;;;;;;;;;15.25;14.25;;;;;-142.59;100.00;56100.38;5073341;27;49745;-66
2022/06/17 01:42:54;;;;;;;;;17.50;17.50;;;;;-142.59;100.00;56100.38;5073321;27;49838;-64
2022/06/17 01:45:20;;;;;;;;;18.00;16.25;;;;;-142.59;100.00;56100.38;5073520;28;49945;-63
2022/06/17 01:47:46;;;;;;;;;14.25;13.25;;;;;-142.59;100.00;56100.38;5073211;28;49565;-67
2022/06/17 01:50:16;;;;;;;;;14.25;14.25;;;;;-142.59;100.00;56100.38;5073213;28;49631;-66
2022/06/17 01:52:53;;;;;;;;;15.25;14.50;;;;;-142.59;100.00;56100.38;5072833;27;49936;-63
2022/06/17 01:55:28;;;;;;;;;17.75;14.00;;;;;-142.59;100.00;56100.38;5073228;28;50052;-64
2022/06/17 01:58:01;;;;;;;;;15.25;15.25;;;;;-142.59;100.00;56100.38;5073143;28;49694;-66
2022/06/17 02:00:28;;;;;;;;;15.00;15.00;;;;;-142.59;100.00;56100.38;5073069;28;49763;-67
2022/06/17 02:03:04;;;;;;;;;17.50;16.50;;;;;-142.59;100.00;56100.38;5072198;28;49772;-64
2022/06/17 02:05:33;;;;;;;;;15.75;14.50;;;;;-142.59;100.00;56100.38;5055605;28;49660;-65
2022/06/17 02:08:01;;;;;;;;;19.50;17.25;;;;;-142.59;100.00;56100.38;5072607;27;50927;-67
2022/06/17 02:10:30;;;;;;;;;18.50;17.25;;;;;-142.59;100.00;56100.38;5072924;28;49743;-64
2022/06/17 02:12:56;;;;;;;;;15.75;15.00;;;;;-142.59;100.00;56100.38;5072943;28;49681;-64
2022/06/17 02:15:23;;;;;;;;;16.75;13.50;;;;;-142.59;100.00;56100.38;5073167;28;49554;-66
2022/06/17 02:17:52;;;;;;;;;16.50;16.50;;;;;-142.59;100.00;56100.38;5072614;28;49734;-67
2022/06/17 02:20:18;;;;;;;;;13.00;13.00;;;;;-142.59;100.00;56100.38;5072786;28;49846;-66
2022/06/17 02:22:45;;;;;;;;;18.75;15.50;;;;;-142.59;100.00;56100.38;5072751;28;49668;-65
2022/06/17 02:25:15;;;;;;;;;16.50;16.25;;;;;-142.59;100.00;56100.38;5073016;28;49954;-67
2022/06/17 02:27:43;;;;;;;;;17.00;16.25;;;;;-142.59;100.00;56100.38;5072674;28;49828;-69
2022/06/17 02:30:10;;;;;;;;;15.75;15.75;;;;;-142.59;100.00;56100.38;5072745;28;49710;-69
2022/06/17 02:32:38;;;;;;;;;14.00;14.00;;;;;-142.59;100.00;56100.38;5075902;27;50036;-68
2022/06/17 02:35:40;;;;;;;;;14.75;13.75;;;;;-142.59;100.00;56100.38;5076381;28;49614;-67
2022/06/17 02:38:06;;;;;;;;;15.50;15.50;;;;;-142.59;100.00;56100.38;5075722;28;50812;-67
2022/06/17 02:40:40;;;;;;;;;14.25;12.75;;;;;-142.59;100.00;56100.38;5076122;28;49504;-67
2022/06/17 02:43:13;;;;;;;;;16.50;16.50;;;;;-142.59;100.00;56100.38;5075984;27;49847;-67
2022/06/17 02:45:43;;;;;;;;;18.50;15.50;;;;;-142.59;100.00;56100.38;5076416;28;49928;-66
2022/06/17 02:48:21;;;;;;;;;14.75;14.50;;;;;-142.59;100.00;56100.38;5075942;28;50896;-69
2022/06/17 02:50:47;;;;;;;;;14.50;14.50;;;;;-142.59;100.00;56100.38;5075837;28;49814;-65
2022/06/17 02:53:13;;;;;;;;;15.50;15.50;;;;;-142.59;100.00;56100.38;5075622;28;49699;-69
2022/06/17 02:55:40;;;;;;;;;14.50;14.50;;;;;-142.59;100.00;56100.38;5075948;28;49954;-65
2022/06/17 02:58:45;;;;;;;;;16.00;16.00;;;;;-142.59;100.00;56100.38;5075413;27;51802;-67
2022/06/17 03:01:21;;;;;;;;;14.25;14.25;;;;;-142.59;100.00;56100.38;4973672;28;49610;-68
2022/06/17 03:03:48;;;;;;;;;14.75;14.75;;;;;-142.59;100.00;56100.38;5064351;28;49575;-67
2022/06/17 03:06:31;;;;;;;;;15.50;11.75;;;;;-142.59;100.00;56100.38;5075850;27;49610;-68
2022/06/17 03:09:00;;;;;;;;;15.75;14.00;;;;;-142.59;100.00;56100.38;5075165;27;50604;-67
2022/06/17 03:11:25;;;;;;;;;18.00;17.00;;;;;-142.59;100.00;56100.38;5075510;28;49703;-67
2022/06/17 03:13:56;;;;;;;;;13.00;13.00;;;;;-142.59;100.00;56100.38;5075058;27;49701;-67
2022/06/17 03:16:23;;;;;;;;;15.00;12.75;;;;;-142.59;100.00;56100.38;5075636;27;49760;-68
2022/06/17 03:18:52;;;;;;;;;13.50;13.50;;;;;-142.59;100.00;56100.38;5074547;28;51207;-68
2022/06/17 03:21:23;;;;;;;;;15.75;15.00;;;;;-142.59;100.00;56100.38;5075485;27;49672;-66
2022/06/17 03:24:11;;;;;;;;;16.25;15.25;;;;;-142.59;100.00;56100.38;5074628;28;49890;-68
2022/06/17 03:26:44;;;;;;;;;14.75;13.50;;;;;-142.59;100.00;56100.38;5075504;28;49684;-65
2022/06/17 03:29:12;;;;;;;;;13.25;13.25;;;;;-142.59;100.00;56100.38;5056862;28;50832;-68
2022/06/17 03:31:45;;;;;;;;;15.50;15.50;;;;;-142.59;100.00;56100.38;5075169;28;49802;-68
2022/06/17 03:34:43;;;;;;;;;15.50;15.50;;;;;-142.59;100.00;56100.38;5075212;28;49614;-66
2022/06/17 03:37:13;;;;;;;;;13.00;12.00;;;;;-142.59;100.00;56100.38;5053858;28;50149;-67
2022/06/17 03:39:39;;;;;;;;;14.00;14.00;;;;;-142.59;100.00;56100.38;5074707;28;49812;-66
2022/06/17 03:42:20;;;;;;;;;15.75;15.25;;;;;-142.59;100.00;56100.38;5074649;28;49770;-65
2022/06/17 03:45:09;;;;;;;;;12.00;12.00;;;;;-142.59;100.00;56100.38;5075027;28;49820;-67
2022/06/17 03:47:52;;;;;;;;;14.00;14.00;;;;;-142.59;100.00;56100.38;5075155;28;49782;-65
2022/06/17 03:50:26;;;;;;;;;14.50;14.50;;;;;-142.59;100.00;56100.38;5074753;28;50783;-67
2022/06/17 03:52:57;;;;;;;;;15.00;15.00;;;;;-142.59;100.00;56100.38;5074456;28;49711;-67
2022/06/17 03:55:23;;;;;;;;;15.25;14.00;;;;;-142.59;100.00;56100.38;5074987;28;49963;-64
2022/06/17 03:57:52;;;;;;;;;17.00;16.00;;;;;-142.59;100.00;56100.38;5074948;28;49653;-64
2022/06/17 04:00:42;;;;;;;;;16.00;15.50;;;;;-142.59;100.00;56100.38;5074637;28;49737;-66
2022/06/17 04:03:15;;;;;;;;;15.25;15.25;;;;;-142.59;100.00;56100.38;5074669;28;49611;-67
2022/06/17 04:05:42;;;;;;;;;17.00;15.00;;;;;-142.59;100.00;56100.38;5074762;27;49705;-66
2022/06/17 04:08:10;;;;;;;;;16.50;15.00;;;;;-142.59;100.00;56100.38;5074717;28;49818;-64
2022/06/17 04:10:36;;;;;;;;;14.50;14.50;;;;;-142.59;100.00;56100.38;5074418;27;50404;-65
2022/06/17 04:13:02;;;;;;;;;17.00;15.75;;;;;-142.59;100.00;56100.38;5074595;28;49595;-68
2022/06/17 04:15:27;;;;;;;;;21.00;16.50;;;;;-142.59;100.00;56100.38;5074642;28;49751;-67
2022/06/17 04:17:54;;;;;;;;;13.50;12.50;;;;;-142.59;100.00;56100.38;5074938;28;49653;-67
2022/06/17 04:20:37;;;;;;;;;20.50;17.75;;;;;-142.59;100.00;56100.38;5074374;28;51799;-67
2022/06/17 04:23:13;;;;;;;;;20.50;18.75;;;;;-142.59;100.00;56100.38;5073581;27;49829;-64
2022/06/17 04:26:00;;;;;;;;;20.00;17.50;;;;;-142.59;100.00;56100.38;5074055;28;49754;-67
2022/06/17 04:28:34;;;;;;;;;15.25;15.25;;;;;-142.59;100.00;56100.38;5074504;28;49585;-64
2022/06/17 04:31:06;;;;;;;;;19.50;18.00;;;;;-142.59;100.00;56100.38;5074214;28;49680;-65
2022/06/17 04:33:48;;;;;;;;;18.25;16.25;;;;;-142.59;100.00;56100.38;5074035;28;49692;-64
2022/06/17 04:36:25;;;;;;;;;20.25;18.75;;;;;-142.59;100.00;56100.38;5074311;28;49767;-66
2022/06/17 04:39:01;;;;;;;;;19.00;17.25;;;;;-142.59;100.00;56100.38;5074165;28;49650;-67
2022/06/17 04:41:36;;;;;;;;;22.50;18.25;;;;;-142.59;100.00;56100.38;5073978;28;49815;-64
2022/06/17 04:44:04;;;;;;;;;20.75;17.75;;;;;-142.59;100.00;56100.38;5074128;28;49600;-63
2022/06/17 04:46:37;;;;;;;;;15.25;15.25;;;;;-142.59;100.00;56100.38;5073981;27;49503;-64
2022/06/17 04:49:05;;;;;;;;;29.50;18.75;;;;;-142.59;100.00;56100.38;5074275;27;49917;-65
2022/06/17 04:51:34;;;;;;;;;23.00;20.25;;;;;-142.59;100.00;56100.38;5073602;28;50450;-66
2022/06/17 04:54:00;;;;;;;;;24.25;22.00;;;;;-142.59;100.00;56100.38;5072278;28;49622;-63
2022/06/17 04:56:39;;;;;;;;;20.25;18.50;;;;;-142.59;100.00;56100.38;5073878;27;49759;-66
2022/06/17 04:59:22;;;;;;;;;17.75;16.75;;;;;-142.59;100.00;56100.38;5074094;28;50022;-64
2022/06/17 05:01:49;;;;;;;;;17.75;17.75;;;;;-142.59;100.00;56100.38;5073520;28;49774;-64
2022/06/17 05:04:14;;;;;;;;;16.75;15.00;;;;;-142.59;100.00;56100.38;5073862;28;49545;-66
2022/06/17 05:06:40;;;;;;;;;17.75;16.50;;;;;-142.59;100.00;56100.38;5073728;27;49964;-65
2022/06/17 05:09:18;;;;;;;;;17.50;17.50;;;;;-142.59;100.00;56100.38;5073640;28;50009;-64
2022/06/17 05:11:48;;;;;;;;;17.75;16.75;;;;;-142.59;100.00;56100.38;5073473;28;50721;-63
2022/06/17 05:14:54;;;;;;;;;20.25;19.00;;;;;-142.59;100.00;56100.38;5073780;28;49621;-63
2022/06/17 05:17:20;;;;;;;;;22.50;19.00;;;;;-142.59;100.00;56100.38;5023338;28;49886;-63
2022/06/17 05:19:48;;;;;;;;;16.75;14.25;;;;;-142.59;100.00;56100.38;5073872;28;49716;-62
2022/06/17 05:22:29;;;;;;;;;18.25;17.25;;;;;-142.59;100.00;56100.38;5073470;28;50354;-63
2022/06/17 05:24:55;;;;;;;;;16.50;15.50;;;;;-142.59;100.00;56100.38;5073445;27;49594;-77
2022/06/17 05:27:20;;;;;;;;;22.25;19.75;;;;;-142.59;100.00;56100.38;5073266;28;49766;-64
2022/06/17 05:29:46;;;;;;;;;17.00;17.00;;;;;-142.59;100.00;56100.38;5073660;28;49902;-65
2022/06/17 05:32:13;;;;;;;;;19.75;17.75;;;;;-142.59;100.00;56100.38;5073300;28;49726;-65
2022/06/17 05:34:39;;;;;;;;;20.00;17.50;;;;;-142.59;100.00;56100.38;5073568;28;49565;-69
2022/06/17 05:37:04;;;;;;;;;13.75;12.50;;;;;-142.59;100.00;56100.38;5073636;28;49601;-71
2022/06/17 05:39:29;;;;;;;;;19.25;17.75;;;;;-142.59;100.00;56100.38;5073367;28;49753;-71
2022/06/17 05:41:55;;;;;;;;;25.50;23.75;;;;;-142.59;100.00;56100.38;5072855;28;58775;-67
2022/06/17 05:44:20;;;;;;;;;21.75;21.75;;;;;-142.59;100.00;56100.38;5072977;28;49680;-66
2022/06/17 05:46:47;;;;;;;;;22.50;19.25;;;;;-142.59;100.00;56100.38;5073041;27;49747;-70
2022/06/17 05:49:13;;;;;;;;;24.00;23.25;;;;;-142.59;100.00;56100.38;5073610;28;49766;-64
2022/06/17 05:51:38;;;;;;;;;24.50;20.00;;;;;-142.59;100.00;56100.38;5050657;28;50564;-65
2022/06/17 05:54:04;;;;;;;;;20.00;20.00;;;;;-142.59;100.00;56100.38;5023124;28;49906;-71
2022/06/17 05:56:29;;;;;;;;;19.75;16.25;;;;;-142.59;100.00;56100.38;5064092;28;49823;-66
2022/06/17 05:58:54;;;;;;;;;23.75;22.50;;;;;-142.59;100.00;56100.38;5063944;28;49860;-65
2022/06/17 06:01:20;;;;;;;;;20.00;18.50;;;;;-142.59;100.00;56100.38;5062408;28;50603;-65
2022/06/17 06:03:45;;;;;;;;;19.00;18.00;;;;;-142.59;100.00;56100.38;5061453;28;49920;-69
2022/06/17 06:06:11;;;;;;;;;19.00;19.00;;;;;-142.59;100.00;56100.38;5066811;28;49839;-68
2022/06/17 06:08:36;;;;;;;;;20.75;20.25;;;;;-142.59;100.00;56100.38;5066999;28;50050;-67
2022/06/17 06:11:05;;;;;;;;;20.75;19.75;;;;;-142.59;100.00;56100.38;5067031;28;49807;-68
2022/06/17 06:13:31;;;;;;;;;24.00;20.00;;;;;-142.59;100.00;56100.38;5067226;28;49835;-65
2022/06/17 06:16:00;;;;;;;;;26.50;22.75;;;;;-142.59;100.00;56100.38;5067693;28;49870;-68
2022/06/17 06:18:29;;;;;;;;;28.25;22.50;;;;;-142.59;100.00;56100.38;5068289;27;49904;-68
2022/06/17 06:20:54;;;;;;;;;21.75;19.25;;;;;-142.59;100.00;56100.38;5067194;28;52272;-68
2022/06/17 06:23:20;;;;;;;;;18.50;18.50;;;;;-142.59;100.00;56100.38;5067925;28;49789;-67
2022/06/17 06:25:46;;;;;;;;;17.25;17.25;;;;;-142.59;100.00;56100.38;5066245;28;49792;-66
2022/06/17 06:28:15;;;;;;;;;14.00;12.75;;;;;-142.59;100.00;56100.38;5063462;28;50009;-67
2022/06/17 06:30:41;;;;;;;;;12.75;11.75;;;;;-142.59;100.00;56100.38;5066551;27;50578;-67
2022/06/17 06:33:08;;;;;;;;;14.75;13.50;;;;;-142.59;100.00;56100.38;5066336;28;49880;-67
2022/06/17 06:35:36;;;;;;;;;11.00;10.00;;;;;-142.59;100.00;56100.38;5066437;27;49849;-67
2022/06/17 06:38:03;;;;;;;;;12.00;12.00;;;;;-142.59;100.00;56100.38;5067424;28;50730;-67
2022/06/17 06:40:29;;;;;;;;;14.25;12.75;;;;;-142.59;100.00;56100.38;5066145;28;50719;-67
2022/06/17 06:42:55;;;;;;;;;12.00;12.00;;;;;-142.59;100.00;56100.38;5066300;28;49671;-66
2022/06/17 06:45:24;;;;;;;;;15.75;13.50;;;;;-142.59;100.00;56100.38;5067878;27;50295;-65
2022/06/17 06:47:50;;;;;;;;;12.25;10.00;;;;;-142.59;100.00;56100.38;5066878;28;49958;-67
2022/06/17 06:50:19;;;;;;;;;13.00;11.25;;;;;-142.59;100.00;56100.38;5066545;28;49867;-67
2022/06/17 06:52:45;;;;;;;;;8.50;8.50;;;;;-142.59;100.00;56100.38;5064375;27;49842;-67
2022/06/17 06:55:12;;;;;;;;;14.25;13.75;;;;;-142.59;100.00;56100.38;5068833;27;50022;-70
2022/06/17 06:57:44;;;;;;;;;11.50;11.25;;;;;-142.59;100.00;56100.38;5065506;28;49851;-68
2022/06/17 07:00:14;;;;;;;;;14.25;12.50;;;;;-142.59;100.00;56100.38;5066533;28;51248;-67
2022/06/17 07:02:40;;;;;;;;;11.00;11.00;;;;;-142.59;100.00;56100.38;5064447;27;49888;-65
2022/06/17 07:05:06;;;;;;;;;12.00;10.00;;;;;-142.59;100.00;56100.38;5065563;28;49724;-68
2022/06/17 07:07:31;;;;;;;;;14.00;12.00;;;;;-142.59;100.00;56100.38;5066155;28;50024;-63
2022/06/17 07:09:57;;;;;;;;;13.00;13.00;;;;;-142.59;100.00;56100.38;5066460;28;50291;-66
2022/06/17 07:12:22;;;;;;;;;12.25;11.75;;;;;-142.59;100.00;56100.38;5067165;28;50905;-68
2022/06/17 07:14:47;;;;;;;;;12.25;10.50;;;;;-142.59;100.00;56100.38;5048122;28;50748;-71
2022/06/17 07:17:14;;;;;;;;;12.00;10.75;;;;;-142.59;100.00;56100.38;5066578;27;50793;-67
2022/06/17 07:19:39;;;;;;;;;11.75;11.75;;;;;-142.59;100.00;56100.38;5061773;27;50598;-67
2022/06/17 07:22:05;;;;;;;;;12.50;12.50;;;;;-142.59;100.00;56100.38;5066218;28;49835;-66
2022/06/17 07:24:30;;;;;;;;;13.00;12.00;;;;;-142.59;100.00;56100.38;5065917;27;49893;-66
2022/06/17 07:26:58;;;;;;;;;12.75;12.25;;;;;-142.59;100.00;56100.38;5082019;27;49991;-71
2022/06/17 07:29:24;;;;;;;;;11.25;10.25;;;;;-142.59;100.00;56100.38;5063492;28;50435;-71
2022/06/17 07:31:49;;;;;;;;;13.25;11.50;;;;;-142.59;100.00;56100.38;5066686;28;50005;-67
2022/06/17 07:34:14;;;;;;;;;10.00;10.00;;;;;-142.59;100.00;56100.38;5065990;28;49958;-67
2022/06/17 07:42:08;;;;;;;;;13.00;10.50;;;;;-142.59;100.00;56100.38;5065155;28;49996;-68
2022/06/17 07:44:35;;;;;;;;;11.50;10.50;;;;;-142.59;100.00;56100.38;5065108;28;49794;-68
2022/06/17 07:47:01;;;;;;;;;11.00;10.75;;;;;-142.59;100.00;56100.38;5068580;27;49738;-66
2022/06/17 07:49:26;;;;;;;;;10.50;10.50;;;;;-142.59;100.00;56100.38;5068725;28;50703;-68
2022/06/17 07:51:52;;;;;;;;;11.50;10.50;;;;;-142.59;100.00;56100.38;5074674;28;49712;-66
2022/06/17 07:54:17;;;;;;;;;11.75;10.00;;;;;-142.59;100.00;56100.38;5074633;28;49518;-68
2022/06/17 07:56:46;;;;;;;;;12.75;11.75;;;;;-142.59;100.00;56100.38;5075499;27;49598;-67
2022/06/17 07:59:12;;;;;;;;;13.00;10.25;;;;;-142.59;100.00;56100.38;5085108;27;49863;-66
2022/06/17 08:01:38;;;;;;;;;9.25;9.25;;;;;-142.59;100.00;56100.38;5076875;27;49813;-67
2022/06/17 08:04:03;;;;;;;;;13.00;11.25;;;;;-142.59;100.00;56100.38;5095300;27;49694;-66
2022/06/17 08:06:29;;;;;;;;;10.00;10.00;;;;;-142.59;100.00;56100.38;5095322;27;49710;-66
2022/06/17 08:08:54;;;;;;;;;11.75;11.00;;;;;-142.59;100.00;56100.38;5095105;27;50521;-68
2022/06/17 08:11:20;;;;;;;;;11.50;11.50;;;;;-142.59;100.00;56100.38;5094904;27;49714;-68
2022/06/17 08:13:46;;;;;;;;;11.25;9.75;;;;;-142.59;100.00;56100.38;5082153;27;49856;-75
2022/06/17 08:16:13;;;;;;;;;9.75;9.75;;;;;-142.59;100.00;56100.38;5092989;27;49931;-72
2022/06/17 08:18:39;;;;;;;;;11.00;11.00;;;;;-142.59;100.00;56100.38;5091303;27;51160;-72
2022/06/17 08:21:05;;;;;;;;;9.75;9.75;;;;;-142.59;100.00;56100.38;5074051;28;49747;-71
2022/06/17 08:23:30;;;;;;;;;7.75;7.75;;;;;-142.59;100.00;56100.38;5075814;27;49703;-72
2022/06/17 08:25:57;;;;;;;;;9.50;8.25;;;;;-142.59;100.00;56100.38;5073996;28;50050;-71
2022/06/17 08:28:23;;;;;;;;;11.00;9.75;;;;;-142.59;100.00;56100.38;5073949;28;50307;-70
2022/06/17 08:30:51;;;;;;;;;9.75;9.75;;;;;-142.59;100.00;56100.38;5074103;27;49676;-72
2022/06/17 08:33:19;;;;;;;;;9.00;9.00;;;;;-142.59;100.00;56100.38;5074181;27;49801;-70
2022/06/17 08:35:49;;;;;;;;;9.50;9.25;;;;;-142.59;100.00;56100.38;5074502;27;49464;-73
2022/06/17 08:38:30;;;;;;;;;10.00;10.00;;;;;-142.59;100.00;56100.38;5067885;27;51006;-67
2022/06/17 08:41:04;;;;;;;;;10.00;10.00;;;;;-142.59;100.00;56100.38;5068823;27;49774;-67
2022/06/17 08:43:45;;;;;;;;;13.50;12.00;;;;;-142.59;100.00;56100.38;5074348;28;49736;-65
2022/06/17 08:46:10;;;;;;;;;11.50;10.50;;;;;-142.59;100.00;56100.38;5093405;27;49595;-67
2022/06/17 08:48:42;;;;;;;;;7.00;6.50;;;;;-142.59;100.00;56100.38;5094376;27;49709;-67
2022/06/17 08:51:43;;;;;;;;;10.25;9.00;;;;;-142.59;100.00;56100.38;5076773;27;49640;-68
2022/06/17 08:54:24;;;;;;;;;10.50;10.50;;;;;-142.59;100.00;56100.38;5036692;27;49885;-72
2022/06/17 08:57:13;;;;;;;;;8.25;8.25;;;;;-142.59;100.00;56100.38;5071169;28;49712;-72
2022/06/17 09:00:17;;;;;;;;;9.50;9.50;;;;;-142.59;100.00;56100.38;5070074;27;49796;-66
2022/06/17 09:03:04;;;;;;;;;9.25;8.00;;;;;-142.59;100.00;56100.38;5018661;28;49761;-69
2022/06/17 09:05:38;;;;;;;;;8.25;8.00;;;;;-142.59;100.00;56100.38;5067268;27;49664;-66
2022/06/17 09:08:22;;;;;;;;;11.75;10.50;;;;;-142.59;100.00;56100.38;5074035;27;49762;-71
2022/06/17 09:10:52;;;;;;;;;10.00;10.00;;;;;-142.59;100.00;56100.38;5073148;28;50571;-67
2022/06/17 09:13:31;;;;;;;;;12.25;9.25;;;;;-142.59;100.00;56100.38;5072876;28;49583;-66
2022/06/17 09:16:09;;;;;;;;;9.25;9.00;;;;;-142.59;100.00;56100.38;5073778;28;49664;-66
2022/06/17 09:18:38;;;;;;;;;8.50;8.00;;;;;-142.59;100.00;56100.38;5073990;28;49756;-72
2022/06/17 09:21:13;;;;;;;;;10.75;10.00;;;;;-142.59;100.00;56100.38;5073295;28;50661;-67
2022/06/17 09:23:40;;;;;;;;;8.00;8.00;;;;;-142.59;100.00;56100.38;5073673;28;49818;-71
2022/06/17 09:26:16;;;;;;;;;9.00;8.00;;;;;-142.59;100.00;56100.38;5073319;27;49652;-70
2022/06/17 09:29:07;;;;;;;;;8.75;8.75;;;;;-142.59;100.00;56100.38;5072969;28;49572;-68
2022/06/17 09:31:41;;;;;;;;;8.75;8.75;;;;;-142.59;100.00;56100.38;5073021;27;51033;-70
2022/06/17 09:34:15;;;;;;;;;7.50;6.75;;;;;-142.59;100.00;56100.38;5073384;28;49908;-69
2022/06/17 09:36:50;;;;;;;;;10.75;9.25;;;;;-142.59;100.00;56100.38;5073303;28;49909;-70
2022/06/17 09:39:41;;;;;;;;;9.50;9.50;;;;;-142.59;100.00;56100.38;5073135;28;49847;-70
2022/06/17 09:42:39;;;;;;;;;7.50;7.50;;;;;-142.59;100.00;56100.38;5076676;28;49854;-68
2022/06/17 09:45:36;;;;;;;;;10.25;10.00;;;;;-142.59;100.00;56100.38;5076855;28;49653;-70
2022/06/17 09:48:22;;;;;;;;;10.25;7.75;;;;;-142.59;100.00;56100.38;5075696;27;49726;-70
2022/06/17 09:50:56;;;;;;;;;9.75;9.75;;;;;-142.59;100.00;56100.38;5065024;28;49927;-70
2022/06/17 09:53:32;;;;;;;;;11.00;10.25;;;;;-142.59;100.00;56100.38;5057957;28;51691;-68
2022/06/17 09:56:05;;;;;;;;;1.75;1.75;;;;;-142.59;100.00;56100.38;5076355;28;49565;-69
2022/06/17 09:58:39;;;;;;;;;8.50;7.75;;;;;-142.59;100.00;56100.38;5076486;28;49894;-69
2022/06/17 10:01:04;;;;;;;;;9.75;9.00;;;;;-142.59;100.00;56100.38;5076596;28;49722;-69
2022/06/17 10:03:33;;;;;;;;;11.75;11.50;;;;;-142.59;100.00;56100.38;5075955;28;49665;-67
2022/06/17 10:06:39;;;;;;;;;10.00;10.00;;;;;-142.59;100.00;56100.38;5076901;27;49634;-70
2022/06/17 10:09:30;;;;;;;;;11.75;9.00;;;;;-142.59;100.00;56100.38;5089865;27;49721;-69
2022/06/17 10:12:03;;;;;;;;;11.00;11.00;;;;;-142.59;100.00;56100.38;5024953;28;50163;-70
2022/06/17 10:14:53;;;;;;;;;7.50;7.50;;;;;-142.59;100.00;56100.38;5066291;27;51419;-68
2022/06/17 10:20:41;;;;;;;;;11.75;10.00;;;;;-142.59;100.00;56100.38;5060676;27;49794;-70
2022/06/17 10:23:32;;;;;;;;;8.25;7.50;;;;;-142.59;100.00;56100.38;5076726;28;49701;-67
2022/06/17 10:26:40;;;;;;;;;8.50;8.50;;;;;-142.59;100.00;56100.38;5066172;27;50365;-70
2022/06/17 10:29:13;;;;;;;;;10.00;8.00;;;;;-142.59;100.00;56100.38;5075985;27;49830;-70
2022/06/17 10:31:45;;;;;;;;;7.50;7.50;;;;;-142.59;100.00;56100.38;5096405;27;49849;-70
2022/06/17 10:34:19;;;;;;;;;10.00;9.00;;;;;-142.59;100.00;56100.38;5077506;27;49731;-75
2022/06/17 10:36:46;;;;;;;;;9.50;9.00;;;;;-142.59;100.00;56100.38;5082620;27;49823;-76
2022/06/17 10:39:18;;;;;;;;;9.00;8.00;;;;;-142.59;100.00;56100.38;5077236;27;49996;-78
2022/06/17 10:41:44;;;;;;;;;10.00;8.50;;;;;-142.59;100.00;56100.38;5096361;27;49909;-77
2022/06/17 10:44:13;;;;;;;;;8.25;8.25;;;;;-142.59;100.00;56100.38;5077666;27;49917;-74
2022/06/17 10:46:45;;;;;;;;;7.75;7.75;;;;;-142.59;100.00;56100.38;5075510;28;51625;-75
2022/06/17 10:49:34;;;;;;;;;8.50;7.50;;;;;-142.59;100.00;56100.38;5074435;28;49718;-73
2022/06/17 10:52:02;;;;;;;;;10.00;10.00;;;;;-142.59;100.00;56100.38;5073965;28;49832;-74
2022/06/17 10:54:34;;;;;;;;;8.00;8.00;;;;;-142.59;100.00;56100.38;5075502;27;49783;-76
2022/06/17 10:56:59;;;;;;;;;8.00;7.25;;;;;-142.59;100.00;56100.38;5075549;28;50974;-76
2022/06/17 10:59:36;;;;;;;;;9.25;9.25;;;;;-142.59;100.00;56100.38;5075793;27;49565;-74
2022/06/17 11:02:02;;;;;;;;;10.50;10.50;;;;;-142.59;100.00;56100.38;5085868;27;50014;-75
2022/06/17 11:04:31;;;;;;;;;8.00;8.00;;;;;-142.59;100.00;56100.38;5064481;28;49632;-72
2022/06/17 11:07:02;;;;;;;;;9.50;8.50;;;;;-142.59;100.00;56100.38;5084691;27;50682;-74
2022/06/17 11:09:39;;;;;;;;;11.50;11.50;;;;;-142.59;100.00;56100.38;5074886;28;49660;-74
2022/06/17 11:12:47;;;;;;;;;8.75;8.75;;;;;-142.59;100.00;56100.38;5075165;27;49723;-75
2022/06/17 11:15:23;;;;;;;;;8.25;8.25;;;;;-142.59;100.00;56100.38;5073576;27;49850;-75
2022/06/17 11:17:53;;;;;;;;;8.75;8.75;;;;;-142.59;100.00;56100.38;5051401;28;51440;-74
2022/06/17 11:20:26;;;;;;;;;11.50;11.50;;;;;-142.59;100.00;56100.38;5072111;27;49834;-69
2022/06/17 11:22:59;;;;;;;;;8.00;8.00;;;;;-142.59;100.00;56100.38;5055414;28;49670;-73
2022/06/17 11:25:30;;;;;;;;;8.75;8.75;;;;;-142.59;100.00;56100.38;5054247;28;49768;-73
2022/06/17 11:28:17;;;;;;;;;9.00;8.00;;;;;-142.59;100.00;56100.38;5053262;28;49864;-75
2022/06/17 11:30:55;;;;;;;;;11.25;9.50;;;;;-142.59;100.00;56100.38;5053588;28;49804;-75